createdAt,value
2019-04-21T00:00:07.194Z,86.99
2019-04-21T00:01:05.725Z,87.09
2019-04-21T00:02:03.278Z,86.33
2019-04-21T00:03:07.448Z,84.85
2019-04-21T00:04:12.323Z,84.23
2019-04-21T00:05:24.689Z,83.55
2019-04-21T00:06:25.081Z,85.10
2019-04-21T00:07:19.264Z,85.10
2019-04-21T00:08:37.550Z,84.99
2019-04-21T00:09:27.821Z,85.24
2019-04-21T00:10:27.194Z,85.30
2019-04-21T00:11:22.428Z,85.10
2019-04-21T00:12:18.188Z,86.06
2019-04-21T00:13:21.874Z,85.14
2019-04-21T00:14:14.764Z,84.72
2019-04-21T00:15:15.714Z,84.07
2019-04-21T00:16:06.799Z,84.79
2019-04-21T00:17:07.892Z,84.69
2019-04-21T00:18:05.921Z,84.99
2019-04-21T00:19:09.101Z,85.55
2019-04-21T00:20:12.464Z,85.44
2019-04-21T00:21:10.983Z,85.41
2019-04-21T00:22:14.923Z,85.41
2019-04-21T00:23:19.846Z,85.36
2019-04-21T00:24:18.501Z,84.89
2019-04-21T00:25:18.126Z,83.39
2019-04-21T00:26:22.654Z,84.72
2019-04-21T00:27:23.266Z,84.93
2019-04-21T00:28:25.194Z,84.93
2019-04-21T00:29:27.589Z,85.03
2019-04-21T00:30:21.775Z,83.86
2019-04-21T00:31:22.681Z,83.65
2019-04-21T00:32:19.505Z,83.76
2019-04-21T00:33:09.114Z,83.65
2019-04-21T00:34:02.603Z,83.86
2019-04-21T00:35:06.376Z,83.59
2019-04-21T00:36:11.272Z,84.62
2019-04-21T00:37:12.082Z,84.21
2019-04-21T00:38:24.994Z,85.49
2019-04-21T00:39:30.191Z,85.38
2019-04-21T00:40:24.001Z,84.31
2019-04-21T00:41:26.092Z,84.83
2019-04-21T00:42:18.411Z,83.70
2019-04-21T00:43:19.708Z,84.72
2019-04-21T00:44:16.472Z,84.93
2019-04-21T00:45:16.769Z,84.93
2019-04-21T00:46:11.428Z,84.93
2019-04-21T00:47:25.259Z,85.03
2019-04-21T00:48:23.603Z,84.87
2019-04-21T00:49:15.503Z,86.15
2019-04-21T00:50:25.115Z,85.52
2019-04-21T00:51:33.252Z,86.18
2019-04-21T00:52:39.673Z,86.80
2019-04-21T00:53:33.433Z,86.66
2019-04-21T00:54:24.633Z,85.77
2019-04-21T00:55:35.524Z,86.60
2019-04-21T00:56:30.418Z,85.57
2019-04-21T00:57:29.373Z,86.04
2019-04-21T00:58:29.971Z,86.35
2019-04-21T00:59:25.865Z,85.94
2019-04-21T01:00:22.222Z,85.52
2019-04-21T01:01:23.458Z,85.59
2019-04-21T01:02:26.441Z,80.74
2019-04-21T01:03:28.216Z,79.94
2019-04-21T01:04:23.507Z,79.47
2019-04-21T01:05:21.176Z,80.49
2019-04-21T01:06:22.381Z,81.21
2019-04-21T01:07:22.011Z,80.80
2019-04-21T01:08:23.150Z,80.33
2019-04-21T01:09:19.709Z,81.05
2019-04-21T01:10:15.012Z,82.93
2019-04-21T01:11:23.898Z,83.25
2019-04-21T01:12:19.039Z,82.53
2019-04-21T01:13:27.951Z,81.91
2019-04-21T01:14:32.266Z,83.35
2019-04-21T01:15:35.244Z,81.23
2019-04-21T01:16:29.940Z,84.00
2019-04-21T01:17:21.776Z,82.70
2019-04-21T01:18:20.534Z,83.70
2019-04-21T01:19:23.183Z,83.28
2019-04-21T01:20:16.211Z,84.00
2019-04-21T01:21:13.367Z,83.70
2019-04-21T01:22:01.232Z,82.18
2019-04-21T01:23:00.341Z,80.77
2019-04-21T01:24:07.941Z,82.87
2019-04-21T01:25:08.957Z,83.32
2019-04-21T01:26:16.741Z,84.35
2019-04-21T01:27:11.232Z,84.87
2019-04-21T01:28:18.839Z,84.80
2019-04-21T01:29:15.786Z,85.11
2019-04-21T01:30:22.238Z,85.01
2019-04-21T01:31:17.076Z,86.04
2019-04-21T01:32:27.930Z,85.25
2019-04-21T01:33:26.067Z,85.83
2019-04-21T01:34:23.379Z,85.73
2019-04-21T01:35:20.672Z,84.97
2019-04-21T01:36:18.133Z,83.73
2019-04-21T01:37:21.047Z,83.28
2019-04-21T01:38:22.645Z,83.39
2019-04-21T01:39:29.398Z,82.18
2019-04-21T01:40:44.978Z,80.08
2019-04-21T01:41:28.086Z,79.67
2019-04-21T01:42:23.872Z,80.08
2019-04-21T01:43:18.602Z,80.12
2019-04-21T01:44:25.056Z,81.29
2019-04-21T01:45:22.398Z,82.21
2019-04-21T01:46:22.527Z,82.77
2019-04-21T01:47:16.160Z,81.70
2019-04-21T01:48:15.858Z,80.81
2019-04-21T01:49:13.065Z,82.87
2019-04-21T01:50:20.334Z,83.28
2019-04-21T01:51:15.058Z,83.94
2019-04-21T01:52:24.043Z,83.39
2019-04-21T01:53:28.310Z,83.90
2019-04-21T01:54:26.934Z,82.97
2019-04-21T01:55:26.366Z,82.81
2019-04-21T01:56:19.662Z,83.94
2019-04-21T01:57:17.553Z,84.80
2019-04-21T01:58:16.585Z,85.83
2019-04-21T01:59:08.990Z,83.40
2019-04-21T02:00:12.286Z,85.25
2019-04-21T02:01:21.609Z,84.19
2019-04-21T02:02:26.628Z,84.08
2019-04-21T02:03:42.869Z,83.77
2019-04-21T02:04:24.268Z,84.19
2019-04-21T02:05:25.854Z,84.29
2019-04-21T02:06:21.280Z,84.91
2019-04-21T02:07:25.007Z,84.91
2019-04-21T02:08:15.451Z,84.84
2019-04-21T02:09:22.934Z,85.05
2019-04-21T02:10:26.918Z,85.05
2019-04-21T02:11:24.456Z,86.43
2019-04-21T02:12:26.575Z,86.63
2019-04-21T02:13:16.894Z,86.53
2019-04-21T02:14:23.686Z,86.80
2019-04-21T02:15:23.929Z,85.19
2019-04-21T02:16:23.080Z,86.08
2019-04-21T02:17:23.583Z,86.49
2019-04-21T02:18:22.665Z,84.16
2019-04-21T02:19:16.682Z,86.22
2019-04-21T02:20:15.500Z,86.47
2019-04-21T02:21:17.844Z,86.47
2019-04-21T02:22:26.442Z,86.92
2019-04-21T02:23:35.053Z,87.65
2019-04-21T02:24:31.185Z,87.79
2019-04-21T02:25:20.103Z,88.41
2019-04-21T02:26:23.088Z,89.65
2019-04-21T02:27:24.593Z,90.37
2019-04-21T02:28:33.560Z,89.92
2019-04-21T02:29:31.142Z,88.64
2019-04-21T02:30:35.640Z,87.23
2019-04-21T02:32:35.316Z,88.57
2019-04-21T02:33:40.961Z,88.98
2019-04-21T02:34:32.252Z,89.34
2019-04-21T02:36:44.814Z,89.86
2019-04-21T02:39:29.748Z,92.11
2019-04-21T02:40:47.835Z,92.42
2019-04-21T02:41:34.632Z,92.48
2019-04-21T02:42:39.434Z,92.42
2019-04-21T02:43:26.637Z,91.38
2019-04-21T02:44:39.268Z,92.72
2019-04-21T02:45:34.277Z,92.52
2019-04-21T02:46:40.079Z,92.63
2019-04-21T02:50:31.725Z,92.52
2019-04-21T02:51:36.997Z,92.63
2019-04-21T02:52:35.548Z,92.63
2019-04-21T02:56:35.753Z,92.93
2019-04-21T02:57:35.594Z,92.89
2019-04-21T02:58:37.745Z,92.17
2019-04-21T02:59:33.101Z,92.79
2019-04-21T03:00:32.238Z,91.92
2019-04-21T03:01:44.220Z,91.44
2019-04-21T03:03:36.340Z,91.13
2019-04-21T03:04:34.922Z,91.34
2019-04-21T03:05:43.289Z,91.75
2019-04-21T03:06:32.381Z,91.17
2019-04-21T03:07:34.600Z,91.49
2019-04-21T03:08:44.810Z,91.80
2019-04-21T03:10:38.116Z,94.32
2019-04-21T03:11:52.782Z,94.28
2019-04-21T03:12:32.185Z,91.16
2019-04-21T03:15:39.556Z,86.22
2019-04-21T03:18:36.403Z,88.32
2019-04-21T03:19:37.999Z,88.84
2019-04-21T03:20:36.826Z,89.67
2019-04-21T03:21:29.119Z,89.25
2019-04-21T03:22:31.566Z,89.67
2019-04-21T03:23:41.689Z,89.77
2019-04-21T03:24:52.617Z,89.71
2019-04-21T03:28:43.571Z,90.83
2019-04-21T03:30:59.552Z,91.44
2019-04-21T03:31:50.910Z,91.59
2019-04-21T03:34:57.387Z,92.83
2019-04-21T03:36:47.672Z,94.07
2019-04-21T03:37:35.369Z,93.87
2019-04-21T03:38:39.397Z,93.14
2019-04-21T03:39:30.919Z,92.32
2019-04-21T03:40:28.679Z,92.67
2019-04-21T03:41:31.799Z,92.77
2019-04-21T03:42:34.817Z,93.97
2019-04-21T03:43:28.460Z,94.07
2019-04-21T03:44:32.286Z,92.83
2019-04-21T03:45:39.274Z,93.45
2019-04-21T03:46:32.752Z,92.52
2019-04-21T03:47:32.660Z,92.32
2019-04-21T03:50:56.243Z,90.66
2019-04-21T03:51:29.559Z,92.11
2019-04-21T03:54:37.610Z,92.63
2019-04-21T03:57:46.348Z,92.72
2019-04-21T03:58:47.379Z,92.42
2019-04-21T03:59:24.940Z,92.52
2019-04-21T04:01:32.748Z,91.90
2019-04-21T04:02:35.125Z,92.83
2019-04-21T04:04:35.611Z,90.06
2019-04-21T04:05:34.615Z,90.37
2019-04-21T04:06:24.552Z,90.68
2019-04-21T04:07:47.169Z,90.58
2019-04-21T04:08:43.924Z,91.24
2019-04-21T04:10:58.928Z,90.68
2019-04-21T04:12:32.134Z,91.40
2019-04-21T04:13:44.914Z,91.24
2019-04-21T04:14:33.450Z,91.44
2019-04-21T04:15:45.343Z,91.03
2019-04-21T04:16:28.781Z,90.83
2019-04-21T04:17:28.779Z,91.03
2019-04-21T04:18:39.275Z,90.56
2019-04-21T04:19:33.040Z,92.00
2019-04-21T04:20:28.286Z,92.72
2019-04-21T04:21:44.234Z,92.21
2019-04-21T04:22:41.142Z,92.32
2019-04-21T04:23:37.474Z,92.72
2019-04-21T04:24:31.642Z,92.48
2019-04-21T04:26:33.493Z,90.83
2019-04-21T04:27:47.790Z,91.24
2019-04-21T04:28:40.249Z,91.75
2019-04-21T04:29:24.557Z,91.24
2019-04-21T04:30:35.732Z,91.55
2019-04-21T04:32:28.669Z,91.86
2019-04-21T04:33:41.775Z,91.30
2019-04-21T04:34:37.813Z,90.99
2019-04-21T04:35:40.541Z,90.58
2019-04-21T04:37:32.824Z,91.30
2019-04-21T04:38:32.222Z,91.09
2019-04-21T04:40:51.724Z,89.13
2019-04-21T04:41:36.883Z,89.40
2019-04-21T04:42:45.684Z,89.50
2019-04-21T04:43:49.777Z,89.40
2019-04-21T04:44:55.521Z,89.40
2019-04-21T04:45:33.416Z,89.71
2019-04-21T04:46:33.390Z,89.81
2019-04-21T04:47:30.117Z,90.22
2019-04-21T04:48:30.484Z,89.81
2019-04-21T04:49:43.197Z,89.81
2019-04-21T04:50:39.245Z,89.71
2019-04-21T04:52:32.668Z,90.74
2019-04-21T04:53:44.369Z,90.84
2019-04-21T04:54:40.099Z,90.22
2019-04-21T04:55:35.818Z,89.92
2019-04-21T04:56:31.435Z,90.84
2019-04-21T04:57:45.164Z,90.84
2019-04-21T04:58:52.945Z,90.43
2019-04-21T05:00:34.599Z,90.55
2019-04-21T05:01:32.652Z,89.01
2019-04-21T05:02:41.741Z,87.66
2019-04-21T05:03:47.310Z,87.05
2019-04-21T05:04:35.515Z,88.65
2019-04-21T05:05:30.061Z,88.39
2019-04-21T05:07:34.179Z,87.32
2019-04-21T05:08:43.909Z,87.59
2019-04-21T05:10:38.512Z,85.94
2019-04-21T05:11:43.174Z,86.06
2019-04-21T05:12:38.851Z,84.62
2019-04-21T05:13:37.526Z,83.86
2019-04-21T05:15:29.597Z,83.92
2019-04-21T05:17:49.170Z,82.34
2019-04-21T05:18:35.158Z,83.06
2019-04-21T05:20:41.781Z,82.45
2019-04-21T05:22:31.143Z,81.97
2019-04-21T05:23:18.148Z,81.83
2019-04-21T05:24:20.891Z,82.04
2019-04-21T05:25:13.447Z,83.06
2019-04-21T05:26:10.981Z,83.27
2019-04-21T05:27:15.569Z,83.89
2019-04-21T05:28:12.688Z,83.48
2019-04-21T05:29:09.007Z,82.86
2019-04-21T05:30:22.140Z,83.78
2019-04-21T05:31:28.502Z,83.27
2019-04-21T05:32:22.950Z,82.96
2019-04-21T05:33:25.926Z,83.89
2019-04-21T05:34:22.041Z,83.48
2019-04-21T05:35:20.078Z,83.89
2019-04-21T05:36:20.974Z,83.48
2019-04-21T05:37:21.998Z,84.81
2019-04-21T05:38:17.174Z,84.50
2019-04-21T05:39:14.840Z,83.58
2019-04-21T05:40:15.646Z,83.68
2019-04-21T05:41:10.027Z,83.78
2019-04-21T05:42:03.945Z,83.06
2019-04-21T05:43:25.241Z,83.06
2019-04-21T05:44:31.231Z,83.48
2019-04-21T05:45:33.476Z,82.45
2019-04-21T05:46:19.673Z,82.92
2019-04-21T05:47:25.010Z,82.71
2019-04-21T05:48:22.956Z,82.00
2019-04-21T05:49:14.076Z,81.79
2019-04-21T05:50:19.102Z,82.62
2019-04-21T05:51:18.133Z,80.97
2019-04-21T05:52:15.010Z,80.35
2019-04-21T05:53:24.372Z,80.05
2019-04-21T05:54:29.422Z,80.32
2019-04-21T05:55:27.762Z,80.42
2019-04-21T05:56:24.061Z,80.11
2019-04-21T05:57:15.078Z,79.60
2019-04-21T05:58:19.405Z,79.36
2019-04-21T05:59:20.124Z,79.97
2019-04-21T06:00:23.690Z,79.32
2019-04-21T06:02:24.276Z,75.96
2019-04-21T06:03:24.002Z,75.93
2019-04-21T06:04:43.038Z,75.89
2019-04-21T06:06:27.582Z,71.66
2019-04-21T06:07:23.031Z,72.24
2019-04-21T06:08:17.934Z,71.12
2019-04-21T06:09:18.995Z,71.06
2019-04-21T06:10:20.369Z,70.10
2019-04-21T06:12:23.572Z,69.97
2019-04-21T06:13:26.570Z,65.19
2019-04-21T06:14:21.634Z,68.07
2019-04-21T06:15:19.807Z,66.52
2019-04-21T06:16:22.350Z,64.25
2019-04-21T06:17:23.736Z,61.20
2019-04-21T06:18:27.243Z,64.22
2019-04-21T06:19:23.663Z,62.66
2019-04-21T06:20:21.170Z,64.43
2019-04-21T06:21:16.154Z,60.62
2019-04-21T06:22:19.419Z,58.97
2019-04-21T06:23:25.119Z,59.22
2019-04-21T06:24:27.003Z,58.74
2019-04-21T06:25:41.011Z,59.34
2019-04-21T06:27:27.474Z,60.74
2019-04-21T06:28:22.614Z,57.09
2019-04-21T06:29:23.842Z,57.37
2019-04-21T06:30:19.340Z,58.36
2019-04-21T06:31:42.411Z,56.91
2019-04-21T06:32:30.379Z,54.49
2019-04-21T06:33:19.671Z,54.56
2019-04-21T06:34:24.422Z,54.94
2019-04-21T06:35:52.903Z,53.30
2019-04-21T06:38:28.323Z,50.65
2019-04-21T06:39:25.186Z,51.51
2019-04-21T06:41:29.762Z,50.46
2019-04-21T06:42:18.574Z,46.81
2019-04-21T06:43:41.960Z,45.86
2019-04-21T06:44:16.750Z,49.68
2019-04-21T06:45:25.619Z,49.43
2019-04-21T06:46:26.464Z,46.26
2019-04-21T06:47:32.528Z,48.37
2019-04-21T06:48:24.766Z,47.64
2019-04-21T06:49:17.214Z,48.20
2019-04-21T06:50:26.593Z,45.31
2019-04-21T06:51:24.068Z,49.27
2019-04-21T06:52:41.934Z,49.22
2019-04-21T06:53:32.824Z,47.23
2019-04-21T06:54:23.837Z,48.79
2019-04-21T06:55:22.448Z,47.08
2019-04-21T06:56:23.600Z,45.98
2019-04-21T06:57:26.075Z,45.76
2019-04-21T06:58:20.807Z,45.16
2019-04-21T06:59:19.220Z,45.46
2019-04-21T07:00:18.552Z,42.43
2019-04-21T07:01:26.519Z,43.49
2019-04-21T07:02:36.174Z,42.27
2019-04-21T07:03:29.420Z,42.95
2019-04-21T07:05:19.991Z,42.47
2019-04-21T07:06:23.717Z,44.55
2019-04-21T07:07:18.149Z,44.15
2019-04-21T07:08:29.025Z,43.27
2019-04-21T07:09:28.038Z,45.01
2019-04-21T07:10:24.194Z,46.81
2019-04-21T07:11:21.668Z,44.98
2019-04-21T07:12:18.545Z,43.56
2019-04-21T07:13:15.297Z,47.06
2019-04-21T07:15:19.518Z,49.05
2019-04-21T07:16:23.470Z,50.21
2019-04-21T07:17:24.730Z,50.79
2019-04-21T07:18:19.163Z,46.12
2019-04-21T07:20:19.753Z,50.38
2019-04-21T07:21:23.443Z,48.66
2019-04-21T07:23:26.110Z,44.58
2019-04-21T07:24:35.503Z,44.20
2019-04-21T07:25:23.867Z,44.78
2019-04-21T07:26:22.292Z,45.42
2019-04-21T07:27:24.022Z,49.01
2019-04-21T07:28:19.266Z,48.14
2019-04-21T07:29:20.441Z,45.69
2019-04-21T07:30:20.802Z,45.69
2019-04-21T07:31:23.239Z,43.04
2019-04-21T07:32:15.318Z,48.61
2019-04-21T07:33:41.187Z,43.37
2019-04-21T07:35:20.722Z,41.03
2019-04-21T07:36:21.387Z,45.59
2019-04-21T07:37:20.802Z,41.36
2019-04-21T07:38:16.565Z,40.76
2019-04-21T07:39:18.436Z,41.08
2019-04-21T07:40:17.721Z,43.05
2019-04-21T07:41:09.448Z,45.65
2019-04-21T07:42:13.459Z,43.23
2019-04-21T07:43:15.219Z,45.63
2019-04-21T07:44:15.644Z,42.83
2019-04-21T07:45:13.028Z,44.92
2019-04-21T07:46:10.198Z,48.28
2019-04-21T07:47:15.767Z,49.76
2019-04-21T07:48:18.770Z,50.38
2019-04-21T07:49:19.115Z,48.70
2019-04-21T07:50:14.858Z,49.65
2019-04-21T07:51:17.245Z,51.29
2019-04-21T07:52:25.666Z,51.34
2019-04-21T07:53:22.290Z,50.88
2019-04-21T07:54:23.254Z,53.55
2019-04-21T07:56:07.445Z,53.78
2019-04-21T07:57:21.331Z,53.90
2019-04-21T07:58:14.569Z,54.23
2019-04-21T07:59:20.346Z,56.07
2019-04-21T08:01:17.995Z,54.83
2019-04-21T08:02:17.048Z,57.23
2019-04-21T08:03:19.302Z,55.09
2019-04-21T08:04:38.010Z,52.97
2019-04-21T08:05:35.297Z,55.79
2019-04-21T08:06:20.480Z,53.27
2019-04-21T08:07:24.479Z,54.08
2019-04-21T08:08:11.608Z,53.85
2019-04-21T08:10:15.569Z,53.12
2019-04-21T08:11:15.101Z,56.32
2019-04-21T08:12:15.769Z,52.19
2019-04-21T08:13:25.168Z,55.39
2019-04-21T08:14:17.023Z,52.49
2019-04-21T08:15:24.947Z,53.60
2019-04-21T08:16:20.066Z,52.44
2019-04-21T08:17:19.079Z,53.75
2019-04-21T08:18:20.412Z,54.58
2019-04-21T08:19:18.769Z,52.36
2019-04-21T08:20:15.693Z,54.00
2019-04-21T08:21:10.725Z,56.70
2019-04-21T08:22:15.799Z,50.65
2019-04-21T08:23:20.086Z,53.65
2019-04-21T08:24:16.285Z,52.14
2019-04-21T08:25:15.131Z,51.03
2019-04-21T08:26:15.583Z,53.02
2019-04-21T08:27:22.421Z,53.98
2019-04-21T08:28:20.469Z,52.29
2019-04-21T08:29:25.721Z,51.99
2019-04-21T08:30:22.663Z,54.79
2019-04-21T08:31:25.890Z,57.35
2019-04-21T08:32:15.481Z,53.70
2019-04-21T08:33:25.110Z,50.68
2019-04-21T08:34:24.174Z,51.26
2019-04-21T08:35:49.687Z,52.97
2019-04-21T08:37:18.295Z,51.79
2019-04-21T08:38:13.578Z,48.86
2019-04-21T08:39:19.984Z,48.05
2019-04-21T08:41:14.932Z,48.80
2019-04-21T08:42:16.899Z,47.32
2019-04-21T08:43:21.670Z,52.32
2019-04-21T08:44:24.337Z,51.01
2019-04-21T08:45:22.671Z,51.81
2019-04-21T08:46:20.268Z,50.68
2019-04-21T08:47:22.074Z,50.16
2019-04-21T08:48:20.637Z,51.72
2019-04-21T08:49:15.607Z,49.39
2019-04-21T08:50:14.914Z,46.38
2019-04-21T08:51:30.173Z,49.01
2019-04-21T08:52:28.473Z,51.19
2019-04-21T08:53:13.775Z,48.89
2019-04-21T08:54:21.564Z,49.29
2019-04-21T08:56:18.212Z,48.61
2019-04-21T08:57:20.179Z,47.31
2019-04-21T08:58:25.318Z,44.82
2019-04-21T08:59:19.015Z,45.76
2019-04-21T09:00:20.365Z,49.04
2019-04-21T09:01:19.189Z,50.20
2019-04-21T09:02:16.776Z,45.01
2019-04-21T09:03:19.566Z,46.04
2019-04-21T09:04:13.333Z,46.01
2019-04-21T09:05:18.946Z,47.72
2019-04-21T09:06:22.228Z,46.14
2019-04-21T09:07:21.317Z,44.68
2019-04-21T09:08:19.888Z,47.91
2019-04-21T09:09:17.914Z,50.24
2019-04-21T09:10:17.315Z,46.81
2019-04-21T09:11:11.450Z,46.97
2019-04-21T09:12:17.690Z,44.65
2019-04-21T09:13:10.149Z,44.59
2019-04-21T09:14:14.720Z,43.77
2019-04-21T09:15:13.882Z,44.65
2019-04-21T09:16:08.489Z,45.86
2019-04-21T09:17:10.844Z,42.85
2019-04-21T09:18:10.236Z,41.36
2019-04-21T09:19:20.195Z,43.13
2019-04-21T09:20:17.236Z,46.42
2019-04-21T09:21:19.442Z,40.20
2019-04-21T09:22:12.877Z,41.41
2019-04-21T09:23:13.370Z,44.24
2019-04-21T09:24:20.999Z,44.71
2019-04-21T09:26:18.592Z,42.55
2019-04-21T09:27:15.866Z,43.57
2019-04-21T09:28:14.035Z,44.97
2019-04-21T09:29:04.391Z,45.17
2019-04-21T09:30:01.252Z,43.13
2019-04-21T09:31:00.939Z,46.94
2019-04-21T09:31:58.038Z,40.04
2019-04-21T09:32:58.142Z,41.22
2019-04-21T09:34:00.300Z,40.98
2019-04-21T09:34:55.972Z,39.59
2019-04-21T09:36:01.256Z,40.90
2019-04-21T09:37:12.710Z,40.06
2019-04-21T09:38:03.948Z,43.85
2019-04-21T09:39:03.438Z,40.58
2019-04-21T09:39:57.819Z,42.73
2019-04-21T09:40:56.499Z,42.83
2019-04-21T09:41:59.132Z,45.06
2019-04-21T09:43:02.420Z,39.96
2019-04-21T09:43:57.459Z,39.88
2019-04-21T09:44:59.468Z,42.76
2019-04-21T09:45:56.715Z,46.66
2019-04-21T09:46:59.687Z,41.22
2019-04-21T09:48:02.693Z,45.55
2019-04-21T09:49:01.932Z,40.30
2019-04-21T09:49:56.303Z,41.09
2019-04-21T09:50:55.127Z,38.18
2019-04-21T09:51:55.248Z,40.82
2019-04-21T09:53:00.262Z,38.54
2019-04-21T09:54:01.803Z,36.36
2019-04-21T09:55:04.213Z,37.29
2019-04-21T09:55:59.734Z,41.06
2019-04-21T09:57:01.607Z,36.50
2019-04-21T09:58:06.956Z,35.42
2019-04-21T09:59:04.080Z,37.06
2019-04-21T10:00:00.924Z,41.04
2019-04-21T10:01:07.486Z,38.35
2019-04-21T10:02:06.507Z,38.81
2019-04-21T10:03:02.946Z,40.54
2019-04-21T10:04:00.049Z,44.02
2019-04-21T10:04:55.716Z,44.82
2019-04-21T10:05:54.662Z,39.54
2019-04-21T10:06:54.633Z,40.32
2019-04-21T10:07:55.244Z,36.54
2019-04-21T10:08:58.364Z,46.08
2019-04-21T10:09:55.634Z,38.49
2019-04-21T10:10:54.741Z,38.59
2019-04-21T10:11:54.909Z,38.51
2019-04-21T10:12:54.611Z,41.33
2019-04-21T10:13:55.149Z,38.29
2019-04-21T10:14:55.302Z,41.28
2019-04-21T10:15:54.549Z,38.62
2019-04-21T10:16:57.231Z,40.52
2019-04-21T10:17:54.528Z,42.89
2019-04-21T10:18:54.800Z,47.36
2019-04-21T10:19:55.084Z,37.08
2019-04-21T10:20:54.746Z,40.78
2019-04-21T10:21:54.482Z,39.56
2019-04-21T10:22:55.261Z,42.15
2019-04-21T10:23:54.518Z,40.68
2019-04-21T10:24:54.475Z,40.38
2019-04-21T10:25:54.729Z,39.28
2019-04-21T10:26:55.416Z,40.80
2019-04-21T10:27:54.938Z,42.59
2019-04-21T10:28:58.618Z,42.69
2019-04-21T10:29:56.115Z,39.92
2019-04-21T10:30:54.405Z,43.13
2019-04-21T10:31:54.612Z,40.83
2019-04-21T10:32:54.398Z,42.65
2019-04-21T10:33:54.561Z,43.18
2019-04-21T10:34:55.113Z,42.35
2019-04-21T10:35:55.163Z,40.64
2019-04-21T10:36:55.331Z,44.23
2019-04-21T10:38:10.387Z,39.26
2019-04-21T10:38:57.130Z,43.63
2019-04-21T10:39:55.715Z,41.96
2019-04-21T10:40:54.289Z,38.87
2019-04-21T10:41:55.255Z,44.97
2019-04-21T10:42:54.273Z,43.18
2019-04-21T10:43:55.494Z,41.09
2019-04-21T10:44:54.831Z,46.19
2019-04-21T10:45:54.876Z,47.19
2019-04-21T10:46:55.897Z,41.49
2019-04-21T10:47:54.841Z,42.61
2019-04-21T10:48:54.923Z,41.24
2019-04-21T10:49:54.928Z,44.74
2019-04-21T10:50:54.938Z,44.79
2019-04-21T10:51:55.002Z,50.97
2019-04-21T10:52:55.238Z,50.84
2019-04-21T10:53:54.659Z,44.25
2019-04-21T10:55:12.834Z,40.95
2019-04-21T10:56:09.747Z,45.05
2019-04-21T10:56:55.134Z,48.55
2019-04-21T10:57:54.108Z,45.81
2019-04-21T10:58:54.243Z,51.65
2019-04-21T10:59:56.115Z,45.62
2019-04-21T11:00:54.177Z,45.26
2019-04-21T11:01:54.879Z,46.03
2019-04-21T11:02:54.828Z,42.11
2019-04-21T11:03:55.115Z,38.64
2019-04-21T11:04:54.521Z,43.58
2019-04-21T11:05:54.637Z,44.81
2019-04-21T11:06:57.927Z,41.16
2019-04-21T11:08:07.651Z,34.36
2019-04-21T11:08:57.201Z,38.13
2019-04-21T11:09:54.072Z,35.77
2019-04-21T11:10:54.133Z,38.40
2019-04-21T11:11:53.962Z,36.61
2019-04-21T11:12:54.705Z,40.31
2019-04-21T11:13:54.870Z,39.20
2019-04-21T11:14:53.989Z,36.87
2019-04-21T11:15:55.191Z,36.36
2019-04-21T11:16:54.806Z,33.98
2019-04-21T11:17:55.460Z,35.91
2019-04-21T11:18:53.907Z,35.75
2019-04-21T11:19:54.848Z,40.84
2019-04-21T11:20:54.923Z,38.49
2019-04-21T11:21:54.653Z,39.61
2019-04-21T11:22:53.853Z,38.42
2019-04-21T11:23:54.271Z,42.19
2019-04-21T11:24:53.840Z,41.52
2019-04-21T11:25:53.974Z,36.55
2019-04-21T11:26:53.946Z,35.89
2019-04-21T11:27:55.229Z,36.46
2019-04-21T11:28:54.935Z,36.48
2019-04-21T11:29:53.801Z,38.64
2019-04-21T11:30:54.872Z,40.17
2019-04-21T11:31:54.840Z,40.45
2019-04-21T11:32:55.173Z,38.59
2019-04-21T11:33:53.760Z,37.89
2019-04-21T11:34:54.837Z,39.18
2019-04-21T11:35:54.891Z,42.54
2019-04-21T11:36:54.378Z,41.53
2019-04-21T11:38:04.609Z,38.43
2019-04-21T11:39:09.795Z,39.26
2019-04-21T11:40:00.125Z,39.04
2019-04-21T11:40:55.839Z,42.16
2019-04-21T11:41:54.061Z,38.00
2019-04-21T11:42:53.711Z,40.74
2019-04-21T11:43:54.929Z,37.85
2019-04-21T11:44:53.647Z,39.34
2019-04-21T11:45:54.766Z,37.11
2019-04-21T11:46:54.395Z,36.34
2019-04-21T11:47:54.465Z,41.69
2019-04-21T11:48:54.729Z,42.66
2019-04-21T11:49:54.859Z,41.63
2019-04-21T11:50:55.056Z,37.96
2019-04-21T11:51:53.616Z,39.84
2019-04-21T11:52:54.841Z,39.44
2019-04-21T11:53:54.867Z,38.69
2019-04-21T11:54:54.976Z,37.60
2019-04-21T11:55:55.156Z,38.96
2019-04-21T11:56:54.807Z,38.11
2019-04-21T11:57:55.226Z,37.02
2019-04-21T11:58:54.083Z,38.59
2019-04-21T11:59:53.609Z,40.12
2019-04-21T12:00:53.906Z,37.19
2019-04-21T12:01:54.046Z,37.47
2019-04-21T12:02:53.467Z,37.35
2019-04-21T12:03:53.763Z,39.50
2019-04-21T12:04:53.763Z,38.24
2019-04-21T12:05:53.442Z,38.58
2019-04-21T12:06:55.588Z,39.15
2019-04-21T12:07:53.479Z,41.41
2019-04-21T12:08:57.558Z,41.46
2019-04-21T12:09:55.509Z,41.26
2019-04-21T12:10:53.562Z,39.36
2019-04-21T12:11:53.765Z,40.55
2019-04-21T12:12:53.381Z,42.94
2019-04-21T12:13:54.265Z,42.57
2019-04-21T12:14:54.238Z,42.47
2019-04-21T12:15:54.708Z,44.43
2019-04-21T12:16:53.347Z,44.41
2019-04-21T12:17:54.297Z,40.07
2019-04-21T12:18:54.574Z,41.50
2019-04-21T12:19:54.514Z,42.58
2019-04-21T12:20:53.743Z,41.82
2019-04-21T12:22:04.979Z,42.99
2019-04-21T12:22:54.905Z,46.26
2019-04-21T12:23:54.390Z,43.85
2019-04-21T12:24:53.388Z,42.25
2019-04-21T12:25:53.259Z,43.85
2019-04-21T12:26:53.886Z,44.95
2019-04-21T12:27:54.146Z,43.14
2019-04-21T12:28:53.604Z,44.60
2019-04-21T12:29:53.530Z,45.90
2019-04-21T12:30:53.766Z,38.48
2019-04-21T12:31:53.895Z,43.62
2019-04-21T12:32:53.907Z,43.30
2019-04-21T12:33:54.023Z,45.40
2019-04-21T12:34:53.866Z,38.09
2019-04-21T12:35:53.747Z,42.25
2019-04-21T12:36:53.162Z,41.28
2019-04-21T12:37:53.237Z,42.47
2019-04-21T12:38:57.353Z,42.57
2019-04-21T12:39:54.742Z,42.57
2019-04-21T12:40:53.095Z,43.84
2019-04-21T12:41:54.219Z,42.45
2019-04-21T12:42:53.076Z,47.11
2019-04-21T12:43:53.096Z,42.94
2019-04-21T12:44:53.067Z,44.71
2019-04-21T12:45:53.835Z,44.31
2019-04-21T12:46:54.037Z,42.65
2019-04-21T12:47:53.926Z,43.74
2019-04-21T12:48:53.824Z,46.71
2019-04-21T12:49:54.043Z,44.06
2019-04-21T12:50:54.218Z,46.44
2019-04-21T12:51:53.517Z,41.99
2019-04-21T12:52:53.640Z,46.53
2019-04-21T12:53:54.047Z,45.25
2019-04-21T12:54:53.548Z,42.96
2019-04-21T12:55:53.814Z,46.61
2019-04-21T12:56:53.761Z,42.66
2019-04-21T12:57:53.206Z,44.00
2019-04-21T12:58:53.288Z,42.43
2019-04-21T12:59:52.998Z,41.71
2019-04-21T13:00:52.897Z,46.78
2019-04-21T13:01:52.911Z,47.28
2019-04-21T13:02:54.033Z,47.38
2019-04-21T13:03:52.862Z,49.56
2019-04-21T13:04:54.221Z,43.92
2019-04-21T13:05:53.755Z,46.80
2019-04-21T13:06:52.855Z,43.82
2019-04-21T13:07:53.366Z,45.53
2019-04-21T13:08:59.430Z,44.14
2019-04-21T13:09:54.594Z,45.26
2019-04-21T13:10:53.922Z,48.54
2019-04-21T13:11:53.066Z,48.04
2019-04-21T13:12:54.145Z,42.49
2019-04-21T13:13:53.661Z,48.36
2019-04-21T13:14:55.652Z,46.59
2019-04-21T13:15:53.492Z,45.20
2019-04-21T13:16:52.765Z,45.60
2019-04-21T13:17:52.727Z,46.39
2019-04-21T13:18:53.435Z,46.59
2019-04-21T13:19:53.592Z,48.49
2019-04-21T13:20:53.896Z,47.09
2019-04-21T13:21:53.923Z,45.28
2019-04-21T13:22:54.038Z,45.37
2019-04-21T13:23:52.811Z,42.59
2019-04-21T13:24:53.770Z,44.38
2019-04-21T13:25:54.023Z,45.87
2019-04-21T13:26:57.594Z,44.78
2019-04-21T13:27:54.483Z,44.98
2019-04-21T13:28:52.632Z,45.00
2019-04-21T13:29:52.589Z,44.72
2019-04-21T13:30:53.939Z,47.44
2019-04-21T13:31:52.599Z,46.54
2019-04-21T13:32:53.469Z,48.65
2019-04-21T13:33:52.560Z,46.19
2019-04-21T13:34:52.794Z,48.88
2019-04-21T13:35:53.130Z,44.99
2019-04-21T13:36:53.803Z,47.48
2019-04-21T13:37:52.542Z,49.18
2019-04-21T13:39:29.795Z,50.77
2019-04-21T13:40:14.724Z,47.98
2019-04-21T13:41:12.149Z,50.47
2019-04-21T13:42:02.742Z,49.08
2019-04-21T13:42:57.232Z,45.90
2019-04-21T13:43:54.972Z,47.42
2019-04-21T13:44:53.259Z,48.22
2019-04-21T13:45:52.441Z,47.63
2019-04-21T13:46:52.565Z,47.63
2019-04-21T13:47:52.800Z,46.92
2019-04-21T13:48:52.757Z,47.22
2019-04-21T13:49:53.462Z,48.72
2019-04-21T13:50:53.460Z,47.05
2019-04-21T13:51:52.357Z,47.15
2019-04-21T13:52:52.377Z,45.35
2019-04-21T13:53:53.505Z,45.95
2019-04-21T13:54:53.675Z,46.67
2019-04-21T13:55:52.914Z,47.55